»·PEaware :: N3452E KSNA-KFLG

N3452E :: KSNA-KFLG

FLIGHT INFORMATION

Flight Status: Arrived
Operator: Privately registered:
United States
More flights under this callsign
Pilot: John C. (27555)
Aircraft: CANADAIR CL-600 CHALLENGER
(CL60)
More flights by this aircraft type
Origin: KSNA John Wayne-Orange Co
United States
Destination: KFLG Flagstaff Pulliam
United States
More flights between these airports :: More routes between these airports
Route: PIGGN3 AVRRY PKE J78 DRK FLG
File this flight plan on PilotEdge
Remarks:
Altitude:
(Current/Filed)
37,000ft
Speed:
(Current/Filed)
474kts
Departed: 21-Sep-22 06:25 PM
Arrived: 21-Sep-22 07:21 PM
Distance/Time
Traveled:
319nm/0:56
Distance/Time
To Go:
Arrived

Flight Plot

Page will automatically refresh every two minutes.

Flight plan parsing failed; only flown route is shown


Map Options




Map Legend


Flown Route
Filed Route
Departure Airport
Arrival Airport
Navaid (VOR, NDB)
Fix

Horizontal Profiles

Position Reports

Time Latitude Longitude Heading Altitude Ground
Speed
21-Sep-22 18:02 33.671333 -117.873761 28 64ft 0kts
21-Sep-22 18:03 33.671333 -117.873761 28 64ft 0kts
21-Sep-22 18:04 33.671333 -117.873761 28 64ft 0kts
21-Sep-22 18:05 33.671333 -117.873761 28 64ft 0kts
21-Sep-22 18:06 33.671333 -117.873761 28 64ft 0kts
21-Sep-22 18:07 33.671333 -117.873761 28 64ft 0kts
21-Sep-22 18:08 33.671333 -117.873761 28 64ft 0kts
21-Sep-22 18:09 33.671333 -117.873761 28 64ft 0kts
21-Sep-22 18:10 33.671333 -117.873761 28 64ft 0kts
21-Sep-22 18:11 33.671333 -117.873761 28 64ft 0kts
21-Sep-22 18:12 33.671333 -117.873761 28 64ft 0kts
21-Sep-22 18:13 33.671333 -117.873761 28 64ft 0kts
21-Sep-22 18:14 33.671333 -117.873761 28 64ft 0kts
21-Sep-22 18:15 33.671333 -117.873761 28 64ft 0kts
21-Sep-22 18:16 33.671333 -117.873761 28 64ft 0kts
21-Sep-22 18:17 33.671333 -117.873761 28 64ft 0kts
21-Sep-22 18:18 33.671333 -117.873761 28 64ft 0kts
21-Sep-22 18:19 33.671333 -117.873761 28 64ft 0kts
21-Sep-22 18:20 33.672584 -117.872290 27 64ft 13kts
21-Sep-22 18:21 33.677002 -117.869488 26 64ft 19kts
21-Sep-22 18:22 33.681298 -117.867017 26 64ft 13kts
21-Sep-22 18:23 33.681763 -117.865553 123 64ft 8kts
21-Sep-22 18:24 33.654594 -117.882214 207 885ft 212kts
21-Sep-22 18:25 33.595499 -117.895914 186 3509ft 217kts
21-Sep-22 18:26 33.533675 -117.875981 151 7258ft 237kts
21-Sep-22 18:27 33.489117 -117.813216 114 10872ft 286kts
21-Sep-22 18:28 33.479160 -117.714451 82 13534ft 307kts
21-Sep-22 18:29 33.517493 -117.621441 59 17151ft 328kts
21-Sep-22 18:30 33.564040 -117.523797 60 20612ft 348kts
21-Sep-22 18:31 33.581776 -117.409209 91 22971ft 372kts
21-Sep-22 18:32 33.578500 -117.285398 91 24625ft 378kts
21-Sep-22 18:33 33.592064 -117.163345 76 26269ft 421kts
21-Sep-22 18:34 33.623238 -117.022573 77 28237ft 447kts
21-Sep-22 18:35 33.627295 -116.873034 96 30094ft 459kts
21-Sep-22 18:36 33.622208 -116.717449 96 31837ft 472kts
21-Sep-22 18:37 33.617664 -116.557075 96 33181ft 483kts
21-Sep-22 18:38 33.612951 -116.394636 96 34634ft 486kts
21-Sep-22 18:39 33.608655 -116.234722 97 36387ft 476kts
21-Sep-22 18:40 33.605696 -116.075203 90 36934ft 491kts
21-Sep-22 18:41 33.644280 -115.911399 71 36944ft 526kts
21-Sep-22 18:42 33.697448 -115.744056 71 36942ft 542kts
21-Sep-22 18:43 33.751775 -115.574722 67 36944ft 544kts
21-Sep-22 18:44 33.816553 -115.410618 65 36952ft 542kts
21-Sep-22 18:45 33.874925 -115.263137 66 36951ft 540kts
21-Sep-22 18:46 33.939219 -115.100029 66 36940ft 539kts
21-Sep-22 18:47 34.003308 -114.936731 66 36920ft 537kts
21-Sep-22 18:48 34.067312 -114.772957 66 36924ft 542kts
21-Sep-22 18:49 34.124218 -114.605431 73 36932ft 538kts
21-Sep-22 18:50 34.172495 -114.434518 72 36935ft 536kts
21-Sep-22 18:51 34.220351 -114.264069 73 36938ft 534kts
21-Sep-22 18:52 34.267944 -114.093370 73 36105ft 538kts
21-Sep-22 18:53 34.315362 -113.922326 72 34330ft 536kts
21-Sep-22 18:54 34.362692 -113.750733 72 32499ft 532kts
21-Sep-22 18:55 34.408375 -113.583395 73 30690ft 505kts
21-Sep-22 18:56 34.452325 -113.421134 73 28855ft 490kts
21-Sep-22 18:57 34.494765 -113.263993 74 27007ft 473kts
21-Sep-22 18:58 34.535810 -113.111257 75 25151ft 457kts
21-Sep-22 18:59 34.575372 -112.963160 75 24143ft 441kts
21-Sep-22 19:00 34.614829 -112.814546 75 24271ft 443kts
21-Sep-22 19:01 34.652976 -112.670284 75 24283ft 441kts
21-Sep-22 19:02 34.691312 -112.526685 72 24280ft 442kts
21-Sep-22 19:03 34.751672 -112.391410 57 24296ft 446kts
21-Sep-22 19:04 34.824727 -112.261133 58 23446ft 440kts
21-Sep-22 19:05 34.892754 -112.138564 58 21617ft 391kts
21-Sep-22 19:06 34.952978 -112.029306 58 19824ft 346kts
21-Sep-22 19:07 35.010130 -111.925229 57 17873ft 341kts
21-Sep-22 19:08 35.066804 -111.821931 57 15914ft 334kts
21-Sep-22 19:09 35.112295 -111.719008 69 14011ft 324kts
21-Sep-22 19:10 35.146704 -111.615976 69 12117ft 286kts
21-Sep-22 19:11 35.177457 -111.522694 69 11032ft 256kts
21-Sep-22 19:12 35.205031 -111.432570 71 11017ft 253kts
21-Sep-22 19:13 35.263941 -111.406866 356 11025ft 176kts
21-Sep-22 19:14 35.270870 -111.449914 239 11025ft 149kts
21-Sep-22 19:15 35.249844 -111.498523 239 11024ft 149kts
21-Sep-22 19:16 35.233471 -111.550727 255 10226ft 151kts
21-Sep-22 19:17 35.210272 -111.591761 227 8330ft 134kts
21-Sep-22 19:18 35.181715 -111.625002 220 8392ft 143kts
21-Sep-22 19:19 35.149960 -111.658952 220 7135ft 135kts
21-Sep-22 19:20 35.131571 -111.678654 234 7019ft 10kts
21-Sep-22 19:21 35.131781 -111.679610 319 7019ft 0kts
21-Sep-22 19:22 35.134027 -111.677715 30 7019ft 8kts

Navigation Log

Ident Type
Flight plan parsing failed, navigation log unavailable